L M Clayton Airport
KOLF : now visible

Airfield :











YOU CAN JOIN US ON...

 
LOGIN :

Register | Disclaimer

   EN    FR    IT 

 









Legend :    VFR   Marginal VFR   IFR   Intensive IFR   Very Intensive IFR
Visi :
Ceiling :
>= 8 km
>= 3000ft
5 to 8 km
1000 to 3000 ft
1500m to 5 km
500 to 1000 ft
800 to 1500m
200 to 500 ft
< 800m
< 200 ft
Symbols :   Thunderstorms  Fog  Heavy snow  Heavy precipitations  Wind > 20 kt






- Airport Elevation : 1986 ft


KOLF - L M Clayton

CURRENT METAR :
  • 032053Z AUTO 06015G23KT 10SM CLR 27/17 A2985 RMK AO2 SLP100 T02720167 58018

EXPIRED METARs :
  • 031953Z AUTO 09013G21KT 10SM SCT110 25/17 A2987 RMK AO2 SLP109 T02500167
  • 031853Z AUTO 08014G20KT 10SM BKN110 23/16 A2990 RMK AO2 SLP118 T02330161
  • 030453Z AUTO 06005KT 10SM CLR 16/14 A2994 RMK AO2 SLP131 T01610139

TAF KOLF
Valid from the 03 at 18:00 until the 04 at 18:00 UTC


031720Z 0318/0418 07011KT P6SM BKN120
TEMPO 0400/0403 VRB15G35KT TSRA OVC060CB
FM040300 06012G20KT P6SM SHRA OVC060
PROB30 0409/0411 6SM +TSRA BR BKN020CB BKN045
FM041100 05008KT P6SM VCTS BKN009CB
FM041400 11010KT P6SM VCTS SCT008 BKN015CB
KZLC FIR / North America



MET'MAP, your aeronautical weather chart ! - Copyright ORBIFLY December 2007 - Disclaimer

ORBIFLY MET'MAP TEAM :

Programming & Development : Alexandra Zaïnal
Original concept : Baudouin d'Aumeries
Technical & hardware support : Manuel Goepfert
Assistance : Marc-Olivier Méhu




SOURCES & CREDITS :

   NOAA       Earth
Advisory